sensor_id;sensor_type;location;lat;lon;timestamp;pressure;altitude;pressure_sealevel;temperature
18713;BMP280;9485;49.386;8.674;2022-10-28T00:00:48;101093.38;;;17.24
18713;BMP280;9485;49.386;8.674;2022-10-28T00:06:11;101086.09;;;17.29
18713;BMP280;9485;49.386;8.674;2022-10-28T00:11:33;101081.16;;;17.34
18713;BMP280;9485;49.386;8.674;2022-10-28T00:16:55;101072.56;;;17.40
18713;BMP280;9485;49.386;8.674;2022-10-28T00:22:15;101069.13;;;17.47
18713;BMP280;9485;49.386;8.674;2022-10-28T00:27:36;101078.22;;;17.51
18713;BMP280;9485;49.386;8.674;2022-10-28T00:32:58;101078.22;;;17.51
18713;BMP280;9485;49.386;8.674;2022-10-28T00:38:18;101099.97;;;17.54
18713;BMP280;9485;49.386;8.674;2022-10-28T00:43:42;101098.13;;;17.56
18713;BMP280;9485;49.386;8.674;2022-10-28T00:49:14;101091.66;;;17.61
18713;BMP280;9485;49.386;8.674;2022-10-28T00:54:37;101087.72;;;17.64
18713;BMP280;9485;49.386;8.674;2022-10-28T01:00:00;101097.28;;;17.67
18713;BMP280;9485;49.386;8.674;2022-10-28T01:05:28;101087.19;;;17.66
18713;BMP280;9485;49.386;8.674;2022-10-28T01:11:12;101090.53;;;17.70
18713;BMP280;9485;49.386;8.674;2022-10-28T01:16:52;101075.50;;;17.69
18713;BMP280;9485;49.386;8.674;2022-10-28T01:22:22;101071.53;;;17.78
18713;BMP280;9485;49.386;8.674;2022-10-28T01:28:21;101068.63;;;17.83
18713;BMP280;9485;49.386;8.674;2022-10-28T01:33:53;101061.31;;;17.88
18713;BMP280;9485;49.386;8.674;2022-10-28T01:39:26;101063.88;;;17.91
18713;BMP280;9485;49.386;8.674;2022-10-28T01:44:58;101075.84;;;17.90
18713;BMP280;9485;49.386;8.674;2022-10-28T01:50:26;101085.72;;;17.89
18713;BMP280;9485;49.386;8.674;2022-10-28T01:55:52;101091.94;;;17.93
18713;BMP280;9485;49.386;8.674;2022-10-28T02:01:16;101083.59;;;17.95
18713;BMP280;9485;49.386;8.674;2022-10-28T02:06:40;101075.25;;;17.97
18713;BMP280;9485;49.386;8.674;2022-10-28T02:12:18;101064.38;;;17.95
18713;BMP280;9485;49.386;8.674;2022-10-28T02:18:11;101038.66;;;17.95
18713;BMP280;9485;49.386;8.674;2022-10-28T02:23:44;101035.53;;;17.93
18713;BMP280;9485;49.386;8.674;2022-10-28T02:29:15;101041.56;;;17.90
18713;BMP280;9485;49.386;8.674;2022-10-28T02:34:41;101054.06;;;17.87
18713;BMP280;9485;49.386;8.674;2022-10-28T02:40:11;101050.41;;;17.86
18713;BMP280;9485;49.386;8.674;2022-10-28T02:45:38;101035.38;;;17.86
18713;BMP280;9485;49.386;8.674;2022-10-28T02:51:06;101028.84;;;17.85
18713;BMP280;9485;49.386;8.674;2022-10-28T02:56:35;101017.22;;;17.83
18713;BMP280;9485;49.386;8.674;2022-10-28T03:01:57;101027.56;;;17.86
18713;BMP280;9485;49.386;8.674;2022-10-28T03:07:18;101030.66;;;17.88
18713;BMP280;9485;49.386;8.674;2022-10-28T03:12:41;101013.22;;;17.92
18713;BMP280;9485;49.386;8.674;2022-10-28T03:18:02;101007.22;;;17.95
18713;BMP280;9485;49.386;8.674;2022-10-28T03:23:22;101012.66;;;17.99
18713;BMP280;9485;49.386;8.674;2022-10-28T03:28:44;100993.91;;;18.03
18713;BMP280;9485;49.386;8.674;2022-10-28T03:34:05;100983.47;;;18.06
18713;BMP280;9485;49.386;8.674;2022-10-28T03:39:26;100975.38;;;18.09
18713;BMP280;9485;49.386;8.674;2022-10-28T03:44:51;100968.84;;;18.14
18713;BMP280;9485;49.386;8.674;2022-10-28T03:50:12;100954.78;;;18.16
18713;BMP280;9485;49.386;8.674;2022-10-28T03:55:33;100947.19;;;18.19
18713;BMP280;9485;49.386;8.674;2022-10-28T04:00:55;100943.84;;;18.20
18713;BMP280;9485;49.386;8.674;2022-10-28T04:06:16;100952.91;;;18.24
18713;BMP280;9485;49.386;8.674;2022-10-28T04:11:36;100952.44;;;18.20
18713;BMP280;9485;49.386;8.674;2022-10-28T04:16:58;100956.53;;;18.25
18713;BMP280;9485;49.386;8.674;2022-10-28T04:22:19;100972.91;;;18.24
18713;BMP280;9485;49.386;8.674;2022-10-28T04:27:40;100971.34;;;18.23
18713;BMP280;9485;49.386;8.674;2022-10-28T04:33:01;100969.28;;;18.24
18713;BMP280;9485;49.386;8.674;2022-10-28T04:38:23;100967.75;;;18.23
18713;BMP280;9485;49.386;8.674;2022-10-28T04:43:43;100946.19;;;18.16
18713;BMP280;9485;49.386;8.674;2022-10-28T04:49:05;100951.66;;;18.20
18713;BMP280;9485;49.386;8.674;2022-10-28T04:54:26;100962.09;;;18.12
18713;BMP280;9485;49.386;8.674;2022-10-28T04:59:47;100974.19;;;18.00
18713;BMP280;9485;49.386;8.674;2022-10-28T05:05:09;100964.94;;;17.88
18713;BMP280;9485;49.386;8.674;2022-10-28T05:10:30;100989.16;;;17.82
18713;BMP280;9485;49.386;8.674;2022-10-28T05:15:51;100995.69;;;17.77
18713;BMP280;9485;49.386;8.674;2022-10-28T05:21:13;101004.00;;;17.75
18713;BMP280;9485;49.386;8.674;2022-10-28T05:26:33;100995.72;;;17.71
18713;BMP280;9485;49.386;8.674;2022-10-28T05:31:54;100985.63;;;17.70
18713;BMP280;9485;49.386;8.674;2022-10-28T05:37:16;100993.16;;;17.68
18713;BMP280;9485;49.386;8.674;2022-10-28T05:42:40;101008.53;;;17.65
18713;BMP280;9485;49.386;8.674;2022-10-28T05:48:01;100989.03;;;17.63
18713;BMP280;9485;49.386;8.674;2022-10-28T05:53:23;100994.25;;;17.65
18713;BMP280;9485;49.386;8.674;2022-10-28T05:58:43;101003.84;;;17.67
18713;BMP280;9485;49.386;8.674;2022-10-28T06:04:04;100990.59;;;17.64
18713;BMP280;9485;49.386;8.674;2022-10-28T06:09:27;100962.28;;;17.66
18713;BMP280;9485;49.386;8.674;2022-10-28T06:14:48;100954.47;;;17.67
18713;BMP280;9485;49.386;8.674;2022-10-28T06:20:10;100935.06;;;17.60
18713;BMP280;9485;49.386;8.674;2022-10-28T06:25:32;100941.00;;;17.67
18713;BMP280;9485;49.386;8.674;2022-10-28T06:30:52;100935.81;;;17.66
18713;BMP280;9485;49.386;8.674;2022-10-28T06:36:13;100945.47;;;17.57
18713;BMP280;9485;49.386;8.674;2022-10-28T06:41:35;100959.25;;;17.59
18713;BMP280;9485;49.386;8.674;2022-10-28T06:46:56;100970.31;;;17.68
18713;BMP280;9485;49.386;8.674;2022-10-28T06:52:17;100987.66;;;17.75
18713;BMP280;9485;49.386;8.674;2022-10-28T06:57:39;100995.94;;;17.79
18713;BMP280;9485;49.386;8.674;2022-10-28T07:03:00;101019.00;;;17.86
18713;BMP280;9485;49.386;8.674;2022-10-28T07:08:20;101022.28;;;17.96
18713;BMP280;9485;49.386;8.674;2022-10-28T07:13:42;101022.66;;;18.10
18713;BMP280;9485;49.386;8.674;2022-10-28T07:19:08;101025.16;;;18.25
18713;BMP280;9485;49.386;8.674;2022-10-28T07:24:29;101028.66;;;18.36
18713;BMP280;9485;49.386;8.674;2022-10-28T07:29:51;101042.06;;;18.47
18713;BMP280;9485;49.386;8.674;2022-10-28T07:35:11;101052.59;;;18.57
18713;BMP280;9485;49.386;8.674;2022-10-28T07:40:32;101055.91;;;18.67
18713;BMP280;9485;49.386;8.674;2022-10-28T07:45:56;101057.63;;;18.75
18713;BMP280;9485;49.386;8.674;2022-10-28T07:51:18;101043.47;;;18.83
18713;BMP280;9485;49.386;8.674;2022-10-28T07:56:38;101043.41;;;18.88
18713;BMP280;9485;49.386;8.674;2022-10-28T08:02:00;101032.41;;;18.92
18713;BMP280;9485;49.386;8.674;2022-10-28T08:07:20;101049.78;;;18.99
18713;BMP280;9485;49.386;8.674;2022-10-28T08:12:41;101040.56;;;19.06
18713;BMP280;9485;49.386;8.674;2022-10-28T08:18:03;101058.84;;;19.22
18713;BMP280;9485;49.386;8.674;2022-10-28T08:23:24;101036.56;;;19.33
18713;BMP280;9485;49.386;8.674;2022-10-28T08:28:45;101065.91;;;19.39
18713;BMP280;9485;49.386;8.674;2022-10-28T08:34:07;101048.41;;;19.43
18713;BMP280;9485;49.386;8.674;2022-10-28T08:39:28;101060.94;;;19.58
18713;BMP280;9485;49.386;8.674;2022-10-28T08:45:04;101053.09;;;19.77
18713;BMP280;9485;49.386;8.674;2022-10-28T08:50:34;101051.22;;;19.98
18713;BMP280;9485;49.386;8.674;2022-10-28T08:56:09;101043.75;;;20.21
18713;BMP280;9485;49.386;8.674;2022-10-28T09:01:41;101048.34;;;20.42
18713;BMP280;9485;49.386;8.674;2022-10-28T09:07:14;101041.38;;;20.63
18713;BMP280;9485;49.386;8.674;2022-10-28T09:12:47;101045.72;;;20.83
18713;BMP280;9485;49.386;8.674;2022-10-28T09:18:17;101044.28;;;21.02
18713;BMP280;9485;49.386;8.674;2022-10-28T09:23:49;101034.22;;;21.09
18713;BMP280;9485;49.386;8.674;2022-10-28T09:29:32;101018.41;;;21.15
18713;BMP280;9485;49.386;8.674;2022-10-28T09:35:00;101041.69;;;21.24
18713;BMP280;9485;49.386;8.674;2022-10-28T09:40:30;101052.63;;;21.26
18713;BMP280;9485;49.386;8.674;2022-10-28T09:45:57;101066.22;;;21.25
18713;BMP280;9485;49.386;8.674;2022-10-28T09:51:28;101069.06;;;21.38
18713;BMP280;9485;49.386;8.674;2022-10-28T09:56:52;101056.88;;;21.58
18713;BMP280;9485;49.386;8.674;2022-10-28T10:02:28;101058.56;;;22.07
18713;BMP280;9485;49.386;8.674;2022-10-28T10:07:53;101060.00;;;22.62
18713;BMP280;9485;49.386;8.674;2022-10-28T10:13:22;101065.88;;;22.84
18713;BMP280;9485;49.386;8.674;2022-10-28T10:18:49;101059.44;;;23.27
18713;BMP280;9485;49.386;8.674;2022-10-28T10:24:31;101063.38;;;23.59
18713;BMP280;9485;49.386;8.674;2022-10-28T10:29:54;101061.75;;;23.78
18713;BMP280;9485;49.386;8.674;2022-10-28T10:35:25;101063.91;;;24.08
18713;BMP280;9485;49.386;8.674;2022-10-28T10:40:50;101053.72;;;24.22
18713;BMP280;9485;49.386;8.674;2022-10-28T10:46:16;101060.09;;;24.35
18713;BMP280;9485;49.386;8.674;2022-10-28T10:51:37;101050.28;;;24.45
18713;BMP280;9485;49.386;8.674;2022-10-28T10:57:06;101046.22;;;24.71
18713;BMP280;9485;49.386;8.674;2022-10-28T11:02:32;101029.06;;;24.80
18713;BMP280;9485;49.386;8.674;2022-10-28T11:07:55;101039.06;;;24.79
18713;BMP280;9485;49.386;8.674;2022-10-28T11:13:25;101040.19;;;24.91
18713;BMP280;9485;49.386;8.674;2022-10-28T11:18:50;101030.38;;;25.09
18713;BMP280;9485;49.386;8.674;2022-10-28T11:24:30;101019.72;;;25.19
18713;BMP280;9485;49.386;8.674;2022-10-28T11:29:54;101014.09;;;25.28
18713;BMP280;9485;49.386;8.674;2022-10-28T11:35:41;101010.16;;;25.41
18713;BMP280;9485;49.386;8.674;2022-10-28T11:41:21;101005.66;;;25.55
18713;BMP280;9485;49.386;8.674;2022-10-28T11:46:52;101010.94;;;25.73
18713;BMP280;9485;49.386;8.674;2022-10-28T11:52:32;101008.81;;;26.05
18713;BMP280;9485;49.386;8.674;2022-10-28T11:58:12;101006.03;;;26.15
18713;BMP280;9485;49.386;8.674;2022-10-28T12:03:59;100999.34;;;26.54
18713;BMP280;9485;49.386;8.674;2022-10-28T12:09:36;100972.22;;;27.69
18713;BMP280;9485;49.386;8.674;2022-10-28T12:15:16;100977.16;;;28.76
18713;BMP280;9485;49.386;8.674;2022-10-28T12:20:46;100975.28;;;29.56
18713;BMP280;9485;49.386;8.674;2022-10-28T12:26:14;100979.06;;;30.38
18713;BMP280;9485;49.386;8.674;2022-10-28T12:31:42;100970.31;;;31.10
18713;BMP280;9485;49.386;8.674;2022-10-28T12:37:10;100956.53;;;31.54
18713;BMP280;9485;49.386;8.674;2022-10-28T12:42:37;100952.72;;;31.75
18713;BMP280;9485;49.386;8.674;2022-10-28T12:48:07;100942.22;;;31.93
18713;BMP280;9485;49.386;8.674;2022-10-28T12:53:39;100942.34;;;31.95
18713;BMP280;9485;49.386;8.674;2022-10-28T12:59:11;100945.75;;;31.25
18713;BMP280;9485;49.386;8.674;2022-10-28T13:04:32;100927.38;;;30.48
18713;BMP280;9485;49.386;8.674;2022-10-28T13:10:09;100920.16;;;29.98
18713;BMP280;9485;49.386;8.674;2022-10-28T13:16:03;100922.63;;;29.82
18713;BMP280;9485;49.386;8.674;2022-10-28T13:21:47;100920.19;;;29.79
18713;BMP280;9485;49.386;8.674;2022-10-28T13:27:14;100927.91;;;29.74
18713;BMP280;9485;49.386;8.674;2022-10-28T13:32:38;100936.50;;;29.63
18713;BMP280;9485;49.386;8.674;2022-10-28T13:38:01;100936.41;;;29.52
18713;BMP280;9485;49.386;8.674;2022-10-28T13:50:15;100925.00;;;28.88
18713;BMP280;9485;49.386;8.674;2022-10-28T13:55:43;100930.47;;;28.46
18713;BMP280;9485;49.386;8.674;2022-10-28T14:01:36;100914.13;;;28.05
18713;BMP280;9485;49.386;8.674;2022-10-28T14:07:16;100917.84;;;27.70
18713;BMP280;9485;49.386;8.674;2022-10-28T14:12:43;100910.19;;;27.38
18713;BMP280;9485;49.386;8.674;2022-10-28T14:18:21;100922.78;;;27.24
18713;BMP280;9485;49.386;8.674;2022-10-28T14:24:12;100921.19;;;27.14
18713;BMP280;9485;49.386;8.674;2022-10-28T14:29:42;100930.75;;;27.07
18713;BMP280;9485;49.386;8.674;2022-10-28T14:35:17;100923.84;;;27.02
18713;BMP280;9485;49.386;8.674;2022-10-28T14:40:48;100920.03;;;27.00
18713;BMP280;9485;49.386;8.674;2022-10-28T14:46:40;100942.00;;;27.03
18713;BMP280;9485;49.386;8.674;2022-10-28T14:52:09;100926.91;;;27.04
18713;BMP280;9485;49.386;8.674;2022-10-28T14:57:33;100931.63;;;27.00
18713;BMP280;9485;49.386;8.674;2022-10-28T15:02:54;100920.88;;;26.93
18713;BMP280;9485;49.386;8.674;2022-10-28T15:08:15;100921.28;;;26.89
18713;BMP280;9485;49.386;8.674;2022-10-28T15:13:36;100928.88;;;26.85
18713;BMP280;9485;49.386;8.674;2022-10-28T15:18:57;100934.19;;;26.79
18713;BMP280;9485;49.386;8.674;2022-10-28T15:24:18;100938.94;;;26.67
18713;BMP280;9485;49.386;8.674;2022-10-28T15:29:41;100934.00;;;26.60
18713;BMP280;9485;49.386;8.674;2022-10-28T15:35:38;100932.66;;;26.44
18713;BMP280;9485;49.386;8.674;2022-10-28T15:40:59;100938.78;;;26.24
18713;BMP280;9485;49.386;8.674;2022-10-28T15:46:23;100928.19;;;26.02
18713;BMP280;9485;49.386;8.674;2022-10-28T15:52:31;100935.53;;;25.79
18713;BMP280;9485;49.386;8.674;2022-10-28T15:57:54;100934.50;;;25.59
18713;BMP280;9485;49.386;8.674;2022-10-28T16:03:25;100933.06;;;25.43
18713;BMP280;9485;49.386;8.674;2022-10-28T16:08:48;100938.75;;;25.26
18713;BMP280;9485;49.386;8.674;2022-10-28T16:14:32;100949.22;;;25.14
18713;BMP280;9485;49.386;8.674;2022-10-28T16:19:58;100943.25;;;25.05
18713;BMP280;9485;49.386;8.674;2022-10-28T16:25:21;100937.16;;;24.94
18713;BMP280;9485;49.386;8.674;2022-10-28T16:30:41;100945.31;;;24.80
18713;BMP280;9485;49.386;8.674;2022-10-28T16:36:04;100940.34;;;24.66
18713;BMP280;9485;49.386;8.674;2022-10-28T16:41:24;100931.72;;;24.51
18713;BMP280;9485;49.386;8.674;2022-10-28T16:46:45;100942.13;;;24.31
18713;BMP280;9485;49.386;8.674;2022-10-28T16:52:14;100951.38;;;24.08
18713;BMP280;9485;49.386;8.674;2022-10-28T16:57:35;100968.50;;;23.83
18713;BMP280;9485;49.386;8.674;2022-10-28T17:02:55;100961.13;;;23.60
18713;BMP280;9485;49.386;8.674;2022-10-28T17:08:17;100965.31;;;23.37
18713;BMP280;9485;49.386;8.674;2022-10-28T17:13:38;100967.19;;;23.12
18713;BMP280;9485;49.386;8.674;2022-10-28T17:18:58;100966.50;;;22.91
18713;BMP280;9485;49.386;8.674;2022-10-28T17:24:20;100961.59;;;22.71
18713;BMP280;9485;49.386;8.674;2022-10-28T17:29:41;100967.63;;;22.53
18713;BMP280;9485;49.386;8.674;2022-10-28T17:35:02;100957.81;;;22.28
18713;BMP280;9485;49.386;8.674;2022-10-28T17:40:24;100981.38;;;22.19
18713;BMP280;9485;49.386;8.674;2022-10-28T17:45:45;100979.56;;;22.08
18713;BMP280;9485;49.386;8.674;2022-10-28T17:51:05;100984.03;;;21.96
18713;BMP280;9485;49.386;8.674;2022-10-28T17:56:27;100983.91;;;21.82
18713;BMP280;9485;49.386;8.674;2022-10-28T18:01:48;100978.59;;;21.65
18713;BMP280;9485;49.386;8.674;2022-10-28T18:07:08;100983.03;;;21.53
18713;BMP280;9485;49.386;8.674;2022-10-28T18:12:31;100978.91;;;21.41
18713;BMP280;9485;49.386;8.674;2022-10-28T18:17:51;100989.22;;;21.24
18713;BMP280;9485;49.386;8.674;2022-10-28T18:23:12;100992.91;;;21.12
18713;BMP280;9485;49.386;8.674;2022-10-28T18:28:36;100997.22;;;21.05
18713;BMP280;9485;49.386;8.674;2022-10-28T18:33:56;101002.13;;;20.97
18713;BMP280;9485;49.386;8.674;2022-10-28T18:39:18;101013.06;;;20.86
18713;BMP280;9485;49.386;8.674;2022-10-28T18:44:40;101008.06;;;20.73
18713;BMP280;9485;49.386;8.674;2022-10-28T18:50:01;101017.09;;;20.64
18713;BMP280;9485;49.386;8.674;2022-10-28T18:55:21;101022.28;;;20.53
18713;BMP280;9485;49.386;8.674;2022-10-28T19:00:46;101028.25;;;20.42
18713;BMP280;9485;49.386;8.674;2022-10-28T19:06:10;101018.75;;;20.34
18713;BMP280;9485;49.386;8.674;2022-10-28T19:11:32;101015.53;;;20.25
18713;BMP280;9485;49.386;8.674;2022-10-28T19:16:55;100995.13;;;20.15
18713;BMP280;9485;49.386;8.674;2022-10-28T19:22:15;101011.44;;;20.07
18713;BMP280;9485;49.386;8.674;2022-10-28T19:27:36;101007.09;;;20.01
18713;BMP280;9485;49.386;8.674;2022-10-28T19:32:58;101007.75;;;19.94
18713;BMP280;9485;49.386;8.674;2022-10-28T19:38:19;101013.34;;;19.86
18713;BMP280;9485;49.386;8.674;2022-10-28T19:43:40;101021.03;;;19.78
18713;BMP280;9485;49.386;8.674;2022-10-28T19:49:04;101028.47;;;19.68
18713;BMP280;9485;49.386;8.674;2022-10-28T19:54:25;101038.50;;;19.62
18713;BMP280;9485;49.386;8.674;2022-10-28T19:59:46;101039.88;;;19.56
18713;BMP280;9485;49.386;8.674;2022-10-28T20:05:08;101037.13;;;19.50
18713;BMP280;9485;49.386;8.674;2022-10-28T20:10:29;101034.88;;;19.43
18713;BMP280;9485;49.386;8.674;2022-10-28T20:15:49;101040.38;;;19.41
18713;BMP280;9485;49.386;8.674;2022-10-28T20:21:14;101036.81;;;19.35
18713;BMP280;9485;49.386;8.674;2022-10-28T20:26:37;101043.38;;;19.30
18713;BMP280;9485;49.386;8.674;2022-10-28T20:31:57;101047.66;;;19.24
18713;BMP280;9485;49.386;8.674;2022-10-28T20:37:19;101042.84;;;19.13
18713;BMP280;9485;49.386;8.674;2022-10-28T20:42:40;101042.88;;;19.08
18713;BMP280;9485;49.386;8.674;2022-10-28T20:48:01;101039.78;;;19.06
18713;BMP280;9485;49.386;8.674;2022-10-28T20:53:25;101045.06;;;19.02
18713;BMP280;9485;49.386;8.674;2022-10-28T20:58:46;101045.59;;;19.00
18713;BMP280;9485;49.386;8.674;2022-10-28T21:04:10;101049.84;;;18.94
18713;BMP280;9485;49.386;8.674;2022-10-28T21:09:33;101049.38;;;18.90
18713;BMP280;9485;49.386;8.674;2022-10-28T21:14:53;101060.34;;;18.86
18713;BMP280;9485;49.386;8.674;2022-10-28T21:20:14;101064.59;;;18.80
18713;BMP280;9485;49.386;8.674;2022-10-28T21:25:36;101058.69;;;18.72
18713;BMP280;9485;49.386;8.674;2022-10-28T21:31:00;101076.94;;;18.69
18713;BMP280;9485;49.386;8.674;2022-10-28T21:36:21;101084.56;;;18.61
18713;BMP280;9485;49.386;8.674;2022-10-28T21:41:43;101084.91;;;18.52
18713;BMP280;9485;49.386;8.674;2022-10-28T21:47:04;101090.94;;;18.49
18713;BMP280;9485;49.386;8.674;2022-10-28T21:52:24;101097.53;;;18.38
18713;BMP280;9485;49.386;8.674;2022-10-28T21:57:46;101100.97;;;18.31
18713;BMP280;9485;49.386;8.674;2022-10-28T22:03:10;101104.66;;;18.26
18713;BMP280;9485;49.386;8.674;2022-10-28T22:08:33;101110.13;;;18.24
18713;BMP280;9485;49.386;8.674;2022-10-28T22:13:57;101104.72;;;18.21
18713;BMP280;9485;49.386;8.674;2022-10-28T22:19:18;101107.34;;;18.13
18713;BMP280;9485;49.386;8.674;2022-10-28T22:24:38;101108.41;;;18.10
18713;BMP280;9485;49.386;8.674;2022-10-28T22:30:00;101116.50;;;18.07
18713;BMP280;9485;49.386;8.674;2022-10-28T22:35:21;101111.84;;;18.04
18713;BMP280;9485;49.386;8.674;2022-10-28T22:40:41;101107.19;;;18.01
18713;BMP280;9485;49.386;8.674;2022-10-28T22:46:04;101104.84;;;17.99
18713;BMP280;9485;49.386;8.674;2022-10-28T22:51:25;101095.25;;;17.97
18713;BMP280;9485;49.386;8.674;2022-10-28T22:56:45;101086.22;;;17.93
18713;BMP280;9485;49.386;8.674;2022-10-28T23:02:07;101089.13;;;17.87
18713;BMP280;9485;49.386;8.674;2022-10-28T23:07:28;101085.78;;;17.83
18713;BMP280;9485;49.386;8.674;2022-10-28T23:12:54;101091.78;;;17.80
18713;BMP280;9485;49.386;8.674;2022-10-28T23:18:16;101080.63;;;17.76
18713;BMP280;9485;49.386;8.674;2022-10-28T23:23:37;101101.41;;;17.77
18713;BMP280;9485;49.386;8.674;2022-10-28T23:28:59;101082.97;;;17.72
18713;BMP280;9485;49.386;8.674;2022-10-28T23:34:21;101078.00;;;17.78
18713;BMP280;9485;49.386;8.674;2022-10-28T23:39:42;101066.06;;;17.80
18713;BMP280;9485;49.386;8.674;2022-10-28T23:45:04;101072.78;;;17.82
18713;BMP280;9485;49.386;8.674;2022-10-28T23:50:26;101071.72;;;17.85
18713;BMP280;9485;49.386;8.674;2022-10-28T23:55:48;101064.16;;;17.88
